Time;durP1;ratioP1;P1;durP2;ratioP2;P2;SDS_P1;SDS_P2;PMS_P1;PMS_P2;Temp;Humidity;BMP_temperature;BMP_pressure;BME280_temperature;BME280_humidity;BME280_pressure;Samples;Min_cycle;Max_cycle;Signal;HPM_P1;HPM_P2
2022/10/24 00:01:45;;;;;;;13.25;8.82;;;;;;;7.88;88.16;98738.47;5090452;28;20092;-65
2022/10/24 00:04:11;;;;;;;12.60;8.68;;;;;;;7.78;87.44;98741.28;5090500;28;20074;-65
2022/10/24 00:06:36;;;;;;;11.93;8.20;;;;;;;7.82;87.76;98730.88;5103220;28;20193;-64
2022/10/24 00:09:03;;;;;;;12.13;8.55;;;;;;;7.89;87.77;98747.88;5102124;28;20028;-64
2022/10/24 00:11:29;;;;;;;11.40;7.90;;;;;;;7.91;88.05;98746.97;5084764;28;20103;-64
2022/10/24 00:13:56;;;;;;;13.65;8.25;;;;;;;7.92;87.10;98751.25;5087396;28;20028;-63
2022/10/24 00:16:22;;;;;;;11.60;8.65;;;;;;;7.88;86.56;98751.34;5092642;28;20047;-65
2022/10/24 00:18:47;;;;;;;12.45;8.23;;;;;;;7.82;87.00;98746.34;5098820;28;20025;-66
2022/10/24 00:21:13;;;;;;;9.65;7.82;;;;;;;7.81;87.25;98749.81;5083244;28;20024;-66
2022/10/24 00:23:39;;;;;;;9.10;7.25;;;;;;;7.78;86.80;98753.31;5091191;28;20083;-66
2022/10/24 00:26:05;;;;;;;9.20;7.05;;;;;;;7.87;86.86;98750.50;5102995;28;20047;-66
2022/10/24 00:28:33;;;;;;;9.55;7.50;;;;;;;7.75;87.42;98732.78;5112230;28;20046;-66
2022/10/24 00:30:59;;;;;;;11.93;7.55;;;;;;;7.81;86.63;98744.66;5117517;28;20185;-65
2022/10/24 00:33:25;;;;;;;10.43;7.72;;;;;;;7.88;86.32;98752.22;5103136;28;20040;-66
2022/10/24 00:35:51;;;;;;;12.38;7.53;;;;;;;7.83;86.81;98741.16;5103214;28;20099;-66
2022/10/24 00:38:17;;;;;;;10.07;7.70;;;;;;;7.81;85.67;98739.50;5106986;28;20028;-66
2022/10/24 00:40:43;;;;;;;10.38;7.25;;;;;;;7.86;84.85;98738.50;5093618;28;20020;-65
2022/10/24 00:43:17;;;;;;;11.02;8.02;;;;;;;7.78;85.04;98735.25;5093446;28;20023;-65
2022/10/24 00:45:49;;;;;;;9.90;7.65;;;;;;;7.70;83.66;98750.94;5103009;28;20028;-66
2022/10/24 00:48:30;;;;;;;10.48;8.10;;;;;;;7.68;83.27;98745.00;5086210;28;20024;-66
2022/10/24 00:51:00;;;;;;;9.55;7.65;;;;;;;7.69;82.74;98735.50;5086311;28;20093;-66
2022/10/24 00:53:29;;;;;;;11.18;8.52;;;;;;;7.67;81.82;98743.28;5104508;28;20254;-65
2022/10/24 00:55:59;;;;;;;13.02;9.05;;;;;;;7.65;82.45;98727.00;5091403;28;20036;-65
2022/10/24 00:58:28;;;;;;;12.93;10.18;;;;;;;7.34;81.28;98720.03;5103142;28;20027;-65
2022/10/24 01:00:54;;;;;;;14.73;9.95;;;;;;;7.50;81.32;98735.13;5106288;28;20096;-65
2022/10/24 01:03:20;;;;;;;12.25;9.73;;;;;;;7.52;81.56;98731.59;5106027;28;20091;-65
2022/10/24 01:06:23;;;;;;;16.02;10.90;;;;;;;7.52;81.87;98731.59;5086040;28;20024;-65
2022/10/24 01:08:58;;;;;;;15.15;10.05;;;;;;;7.47;82.14;98730.91;5093092;28;20259;-65
2022/10/24 01:11:23;;;;;;;17.17;10.25;;;;;;;7.53;81.19;98735.88;5106386;28;20113;-64
2022/10/24 01:14:16;;;;;;;14.98;10.40;;;;;;;7.51;81.99;98736.81;5092020;28;20032;-65
2022/10/24 01:16:54;;;;;;;13.70;10.77;;;;;;;7.37;81.51;98719.13;5097501;28;20201;-66
2022/10/24 01:19:59;;;;;;;15.40;10.95;;;;;;;7.39;80.88;98737.97;5097606;28;20201;-64
2022/10/24 01:22:33;;;;;;;15.02;10.75;;;;;;;7.46;81.72;98718.06;5091664;28;20025;-65
2022/10/24 01:25:15;;;;;;;18.10;11.18;;;;;;;7.37;81.57;98732.84;5091129;28;20083;-66
2022/10/24 01:27:47;;;;;;;;;;;;;;;7.46;80.56;98747.22;5106314;28;20055;-65
2022/10/24 01:30:15;;;;;;;16.80;10.68;;;;;;;7.39;81.01;98730.22;5094440;28;19908;-65
2022/10/24 01:32:56;;;;;;;15.50;10.82;;;;;;;7.46;82.02;98743.81;5105332;28;20039;-64
2022/10/24 01:35:39;;;;;;;14.70;11.02;;;;;;;7.39;81.69;98743.94;5087529;28;20036;-65
2022/10/24 01:38:22;;;;;;;17.48;11.75;;;;;;;7.39;82.06;98740.53;5101089;28;20066;-65
2022/10/24 01:40:54;;;;;;;15.43;10.90;;;;;;;7.39;81.36;98735.38;5097651;28;20039;-66
2022/10/24 01:43:30;;;;;;;15.05;11.50;;;;;;;7.50;80.88;98740.28;5097222;28;20138;-66
2022/10/24 01:46:03;;;;;;;16.00;11.55;;;;;;;7.30;81.91;98745.91;5090414;28;20024;-65
2022/10/24 01:48:36;;;;;;;15.10;11.50;;;;;;;7.35;81.34;98721.72;5104769;28;20030;-66
2022/10/24 01:51:05;;;;;;;15.05;12.23;;;;;;;7.36;81.06;98710.53;5105425;28;20087;-65
2022/10/24 01:53:31;;;;;;;16.35;10.95;;;;;;;7.41;81.16;98729.31;5087335;28;20020;-66
2022/10/24 01:55:58;;;;;;;18.65;12.35;;;;;;;7.32;81.49;98728.69;5098334;28;20032;-66
2022/10/24 01:58:25;;;;;;;15.40;12.35;;;;;;;7.30;81.69;98738.19;5105311;28;20028;-65
2022/10/24 02:00:57;;;;;;;16.33;11.50;;;;;;;7.28;81.06;98724.47;5101127;28;20024;-66
2022/10/24 02:03:50;;;;;;;17.70;12.85;;;;;;;7.28;81.52;98738.19;5084963;28;20055;-65
2022/10/24 02:06:30;;;;;;;17.17;12.63;;;;;;;7.11;82.05;98719.72;5100952;28;20268;-65
2022/10/24 02:09:01;;;;;;;19.55;12.75;;;;;;;7.17;81.82;98732.44;5084639;28;20028;-65
2022/10/24 02:11:27;;;;;;;22.87;12.87;;;;;;;7.35;81.91;98747.47;5102536;28;20216;-66
2022/10/24 02:14:17;;;;;;;19.45;13.75;;;;;;;7.35;81.83;98736.34;5092122;28;20021;-67
2022/10/24 02:16:44;;;;;;;17.58;13.05;;;;;;;7.32;81.58;98741.56;5095917;28;20038;-66
2022/10/24 02:19:12;;;;;;;18.50;13.35;;;;;;;7.35;82.40;98754.34;5098317;28;20035;-66
2022/10/24 02:21:54;;;;;;;20.02;13.95;;;;;;;7.24;81.55;98755.47;5086878;28;20024;-66
2022/10/24 02:24:27;;;;;;;18.95;14.27;;;;;;;7.23;82.01;98733.16;5085456;28;20024;-66
2022/10/24 02:26:52;;;;;;;17.23;13.05;;;;;;;7.40;82.64;98748.22;5083291;28;20028;-66
2022/10/24 02:29:40;;;;;;;18.77;13.63;;;;;;;7.26;81.35;98734.81;5083259;28;20366;-65
2022/10/24 02:32:10;;;;;;;22.65;13.95;;;;;;;7.29;81.69;98732.16;5098834;28;20043;-65
2022/10/24 02:34:38;;;;;;;19.65;13.32;;;;;;;7.37;81.30;98752.63;5094591;28;20039;-66
2022/10/24 02:37:07;;;;;;;23.77;14.65;;;;;;;7.14;82.63;98738.53;5090273;28;20052;-66
2022/10/24 02:39:34;;;;;;;20.38;13.20;;;;;;;7.22;82.60;98754.63;5103249;28;20032;-65
2022/10/24 02:42:03;;;;;;;20.67;14.85;;;;;;;7.23;82.24;98742.63;5084329;28;20028;-65
2022/10/24 02:44:30;;;;;;;21.38;14.70;;;;;;;7.13;83.67;98738.56;5084197;28;20058;-64
2022/10/24 02:46:59;;;;;;;19.15;13.57;;;;;;;7.22;83.04;98743.50;5096673;28;20034;-65
2022/10/24 02:49:26;;;;;;;19.40;14.10;;;;;;;7.27;82.70;98757.13;5095741;28;20035;-65
2022/10/24 02:51:52;;;;;;;22.08;13.77;;;;;;;7.20;83.88;98758.16;5087686;28;20028;-66
2022/10/24 02:54:18;;;;;;;21.00;14.63;;;;;;;7.25;83.88;98764.03;5104318;28;20043;-66
2022/10/24 02:56:53;;;;;;;20.08;14.75;;;;;;;7.09;83.56;98745.50;5087714;28;20091;-65
2022/10/24 02:59:19;;;;;;;22.65;14.25;;;;;;;7.24;83.73;98777.81;5103245;28;20038;-65
2022/10/24 03:01:44;;;;;;;21.85;15.77;;;;;;;7.21;83.12;98783.00;5103761;28;20047;-65
2022/10/24 03:04:10;;;;;;;22.90;14.95;;;;;;;7.23;82.95;98778.69;5097408;28;20028;-67
2022/10/24 03:06:36;;;;;;;25.48;15.57;;;;;;;7.21;83.75;98775.28;5085253;28;20028;-66
2022/10/24 03:09:02;;;;;;;25.98;16.00;;;;;;;7.31;83.80;98786.22;5103837;28;20344;-65
2022/10/24 03:11:27;;;;;;;25.80;15.48;;;;;;;7.25;83.11;98792.34;5086822;28;20043;-65
2022/10/24 03:13:53;;;;;;;24.38;15.20;;;;;;;7.25;83.67;98782.91;5095563;28;20027;-64
2022/10/24 03:16:19;;;;;;;28.23;16.02;;;;;;;7.21;84.04;98790.72;5096604;28;20051;-64
2022/10/24 03:18:44;;;;;;;28.27;15.32;;;;;;;7.26;83.23;98786.31;5101937;28;20292;-66
2022/10/24 03:21:10;;;;;;;26.48;15.90;;;;;;;7.28;83.27;98792.28;5103717;28;20028;-65
2022/10/24 03:23:35;;;;;;;24.75;15.18;;;;;;;7.20;82.96;98794.19;5098133;28;20351;-66
2022/10/24 03:26:01;;;;;;;25.30;15.45;;;;;;;7.08;83.60;98791.00;5099039;28;20040;-66
2022/10/24 03:28:26;;;;;;;24.48;15.45;;;;;;;6.90;84.88;98796.56;5091881;28;20099;-66
2022/10/24 03:30:52;;;;;;;25.15;15.23;;;;;;;6.93;85.36;98796.50;5100335;28;20024;-65
2022/10/24 03:33:18;;;;;;;25.20;14.85;;;;;;;7.04;85.19;98802.25;5083613;28;20028;-66
2022/10/24 03:35:44;;;;;;;22.58;14.73;;;;;;;6.95;85.15;98804.19;5102203;28;20051;-66
2022/10/24 03:38:10;;;;;;;27.15;16.23;;;;;;;6.97;85.52;98811.00;5088117;28;20036;-65
2022/10/24 03:40:36;;;;;;;24.27;15.18;;;;;;;6.93;85.43;98798.19;5091301;28;20330;-66
2022/10/24 03:43:02;;;;;;;22.77;14.43;;;;;;;6.98;86.26;98810.09;5097378;28;20099;-66
2022/10/24 03:45:28;;;;;;;23.95;14.38;;;;;;;7.08;85.52;98816.75;5087210;28;20048;-66
2022/10/24 03:47:53;;;;;;;22.42;13.77;;;;;;;7.15;85.30;98816.63;5096886;28;20035;-66
2022/10/24 03:50:19;;;;;;;21.45;13.18;;;;;;;7.18;85.78;98808.81;5103389;28;20036;-65
2022/10/24 03:52:45;;;;;;;21.33;14.05;;;;;;;7.16;85.65;98811.44;5093197;28;20025;-64
2022/10/24 03:55:11;;;;;;;23.35;13.70;;;;;;;7.08;85.99;98821.91;5088856;28;20016;-65
2022/10/24 03:57:37;;;;;;;19.00;12.80;;;;;;;7.04;85.48;98809.09;5099032;28;20028;-66
2022/10/24 04:00:04;;;;;;;19.65;12.77;;;;;;;7.03;86.14;98822.88;5083246;28;20042;-65
2022/10/24 04:02:30;;;;;;;18.05;12.27;;;;;;;7.08;86.21;98821.03;5083336;28;20030;-65
2022/10/24 04:04:55;;;;;;;19.13;12.05;;;;;;;7.04;86.28;98829.72;5087481;28;20056;-66
2022/10/24 04:07:21;;;;;;;19.02;12.48;;;;;;;7.00;86.20;98834.09;5083010;28;20028;-65
2022/10/24 04:09:47;;;;;;;18.42;12.65;;;;;;;7.08;86.24;98833.91;5082873;28;20032;-66
2022/10/24 04:12:13;;;;;;;15.77;11.23;;;;;;;7.06;85.60;98843.41;5087376;28;20028;-66
2022/10/24 04:14:39;;;;;;;18.63;11.45;;;;;;;6.99;86.36;98845.25;5105162;28;20327;-65
2022/10/24 04:17:04;;;;;;;17.25;11.13;;;;;;;6.97;86.13;98841.00;5093985;28;20024;-65
2022/10/24 04:19:30;;;;;;;15.90;11.38;;;;;;;7.04;86.55;98847.72;5095282;28;20027;-65
2022/10/24 04:21:56;;;;;;;14.02;11.05;;;;;;;7.03;86.92;98849.47;5102520;28;20434;-66
2022/10/24 04:24:21;;;;;;;15.85;11.07;;;;;;;7.08;86.87;98851.94;5106378;28;20027;-65
2022/10/24 04:26:47;;;;;;;17.30;11.10;;;;;;;7.08;87.05;98850.22;5087789;28;20336;-65
2022/10/24 04:29:13;;;;;;;15.38;10.02;;;;;;;7.16;86.15;98851.78;5086660;28;20040;-66
2022/10/24 04:31:38;;;;;;;13.50;9.80;;;;;;;7.19;86.44;98854.31;5096052;28;20040;-66
2022/10/24 04:34:05;;;;;;;13.85;9.48;;;;;;;7.06;87.04;98856.28;5101088;28;20020;-66
2022/10/24 04:36:31;;;;;;;12.95;9.10;;;;;;;7.14;87.23;98850.97;5086489;28;20252;-65
2022/10/24 04:38:57;;;;;;;12.35;8.60;;;;;;;7.18;86.22;98848.31;5085413;28;20074;-65
2022/10/24 04:41:22;;;;;;;13.38;9.20;;;;;;;7.08;87.40;98832.22;5100893;28;20044;-65
2022/10/24 04:43:48;;;;;;;11.23;8.98;;;;;;;7.14;86.99;98849.25;5095814;28;20339;-64
2022/10/24 04:46:13;;;;;;;11.32;8.52;;;;;;;7.11;86.41;98851.88;5092116;28;20020;-66
2022/10/24 04:48:39;;;;;;;11.10;8.77;;;;;;;7.10;87.28;98857.91;5105480;28;20050;-66
2022/10/24 04:51:05;;;;;;;12.27;8.50;;;;;;;7.07;87.07;98855.41;5103233;28;20036;-66
2022/10/24 04:53:31;;;;;;;14.52;8.98;;;;;;;7.17;86.56;98866.34;5106231;28;20024;-66
2022/10/24 04:55:56;;;;;;;10.95;8.32;;;;;;;7.16;86.46;98873.22;5106280;28;20099;-65
2022/10/24 04:58:22;;;;;;;10.23;7.65;;;;;;;7.18;85.91;98876.63;5096232;28;20312;-67
2022/10/24 05:00:49;;;;;;;9.55;7.60;;;;;;;7.23;85.97;98879.94;5085881;28;20316;-67
2022/10/24 05:03:19;;;;;;;11.60;8.23;;;;;;;7.20;86.11;98877.44;5086072;28;20305;-67
2022/10/24 05:05:46;;;;;;;12.32;8.98;;;;;;;7.22;86.02;98893.69;5090209;28;20100;-69
2022/10/24 05:08:12;;;;;;;10.45;7.65;;;;;;;7.35;85.45;98896.84;5090486;28;20044;-66
2022/10/24 05:10:37;;;;;;;13.90;8.88;;;;;;;7.20;86.17;98890.31;5094579;28;20073;-65
2022/10/24 05:13:04;;;;;;;12.13;8.82;;;;;;;7.04;86.36;98901.78;5101933;28;20039;-65
2022/10/24 05:15:29;;;;;;;12.15;8.50;;;;;;;7.08;86.08;98899.16;5085733;28;20051;-66
2022/10/24 05:17:56;;;;;;;13.70;8.55;;;;;;;6.97;84.97;98906.22;5105359;28;20316;-65
2022/10/24 05:20:22;;;;;;;13.07;8.98;;;;;;;7.04;85.71;98906.94;5091197;28;20103;-65
2022/10/24 05:22:47;;;;;;;14.43;8.95;;;;;;;7.11;85.71;98910.25;5088258;28;20339;-67
2022/10/24 05:25:13;;;;;;;16.65;8.95;;;;;;;7.09;85.93;98910.28;5090902;28;20051;-67
2022/10/24 05:27:39;;;;;;;13.02;9.00;;;;;;;7.09;85.28;98910.28;5105119;28;20023;-65
2022/10/24 05:30:05;;;;;;;15.38;8.70;;;;;;;7.13;85.33;98913.66;5085482;28;20024;-65
2022/10/24 05:32:31;;;;;;;9.80;8.05;;;;;;;7.13;84.68;98911.09;5100450;28;20031;-65
2022/10/24 05:34:57;;;;;;;10.30;7.80;;;;;;;7.07;85.15;98918.03;5094113;28;20024;-64
2022/10/24 05:37:22;;;;;;;11.18;7.82;;;;;;;6.97;84.70;98908.81;5092449;28;20066;-66
2022/10/24 05:39:48;;;;;;;12.00;8.30;;;;;;;7.12;85.67;98920.50;5103742;28;20054;-65
2022/10/24 05:42:14;;;;;;;10.88;7.43;;;;;;;7.17;84.84;98928.13;5095629;28;20024;-64
2022/10/24 05:44:39;;;;;;;12.75;8.27;;;;;;;7.13;84.99;98926.53;5096664;28;20098;-65
2022/10/24 05:47:05;;;;;;;13.50;8.35;;;;;;;7.12;85.16;98932.53;5100362;28;20035;-65
2022/10/24 05:49:31;;;;;;;13.65;8.07;;;;;;;7.26;84.79;98940.84;5100506;28;20134;-65
2022/10/24 05:51:57;;;;;;;12.10;8.00;;;;;;;7.16;83.89;98937.59;5102217;28;20040;-66
2022/10/24 05:54:23;;;;;;;9.30;7.32;;;;;;;7.14;84.82;98939.38;5085118;28;20324;-65
2022/10/24 05:56:49;;;;;;;9.77;7.85;;;;;;;7.15;85.39;98946.19;5103347;28;20077;-65
2022/10/24 05:59:14;;;;;;;10.73;7.35;;;;;;;7.24;84.41;98940.88;5105345;28;20282;-64
2022/10/24 06:01:40;;;;;;;10.88;8.02;;;;;;;7.34;84.22;98941.53;5102171;28;20033;-66
2022/10/24 06:04:07;;;;;;;11.23;7.75;;;;;;;7.30;84.44;98941.66;5100622;28;20032;-65
2022/10/24 06:06:36;;;;;;;8.50;7.30;;;;;;;7.23;85.45;98957.19;5084990;28;20245;-68
2022/10/24 06:09:03;;;;;;;9.45;7.93;;;;;;;7.17;86.53;98956.47;5104970;28;20028;-66
2022/10/24 06:11:29;;;;;;;10.05;7.82;;;;;;;7.28;86.84;98951.94;5088910;28;20320;-66
2022/10/24 06:13:54;;;;;;;11.07;8.43;;;;;;;7.29;87.22;98963.97;5094993;28;20035;-65
2022/10/24 06:16:20;;;;;;;9.80;7.95;;;;;;;7.23;88.04;98959.78;5089895;28;20270;-65
2022/10/24 06:18:45;;;;;;;11.10;7.68;;;;;;;7.22;88.00;98950.34;5103310;28;20040;-65
2022/10/24 06:21:12;;;;;;;10.50;7.97;;;;;;;7.38;87.44;98953.47;5084673;28;20052;-66
2022/10/24 06:23:38;;;;;;;10.25;7.32;;;;;;;7.54;86.65;98948.00;5097688;28;20073;-66
2022/10/24 06:26:07;;;;;;;11.73;7.97;;;;;;;7.59;87.00;98952.16;5094895;28;20308;-66
2022/10/24 06:28:32;;;;;;;10.95;8.77;;;;;;;7.59;86.21;98953.91;5094737;28;20024;-67
2022/10/24 06:31:02;;;;;;;14.25;8.52;;;;;;;7.69;86.20;98952.81;5083080;28;20027;-66
2022/10/24 06:33:27;;;;;;;10.00;7.50;;;;;;;7.68;85.86;98952.84;5084700;28;20032;-67
2022/10/24 06:35:53;;;;;;;10.40;8.07;;;;;;;7.66;85.19;98954.63;5087014;28;20042;-66
2022/10/24 06:38:18;;;;;;;14.02;9.13;;;;;;;7.70;84.55;98959.69;5092069;28;20028;-64
2022/10/24 06:40:44;;;;;;;12.07;8.70;;;;;;;7.60;84.33;98960.75;5073485;28;20024;-65
2022/10/24 06:43:10;;;;;;;11.43;8.80;;;;;;;7.80;85.02;98969.81;5090903;28;20025;-65
2022/10/24 06:45:37;;;;;;;14.35;10.50;;;;;;;7.61;86.43;98944.44;5088008;28;20024;-66
2022/10/24 06:48:03;;;;;;;12.57;9.35;;;;;;;7.75;86.06;98973.31;5085434;28;20103;-66
2022/10/24 06:50:28;;;;;;;14.48;10.77;;;;;;;7.71;83.73;98965.66;5088936;28;20021;-64
2022/10/24 06:52:54;;;;;;;17.20;11.82;;;;;;;7.66;84.33;98967.53;5088418;28;20035;-66
2022/10/24 06:55:20;;;;;;;14.68;9.80;;;;;;;7.63;84.56;98975.31;5092373;28;20024;-66
2022/10/24 06:57:45;;;;;;;14.63;11.18;;;;;;;7.70;83.06;98974.31;5096511;28;20035;-66
2022/10/24 07:00:13;;;;;;;12.48;9.15;;;;;;;7.67;83.34;98975.22;5104219;28;20032;-65
2022/10/24 07:02:39;;;;;;;12.77;8.65;;;;;;;7.80;83.90;98975.78;5087562;28;20044;-65
2022/10/24 07:05:08;;;;;;;15.27;8.63;;;;;;;7.80;83.37;98977.53;5086781;28;20027;-66
2022/10/24 07:07:33;;;;;;;11.15;7.80;;;;;;;7.76;82.23;98977.56;5085335;28;20161;-66
2022/10/24 07:09:59;;;;;;;12.52;8.32;;;;;;;7.78;82.15;98983.56;5090928;28;20067;-66
2022/10/24 07:12:24;;;;;;;9.82;7.65;;;;;;;7.72;82.65;98981.09;5101472;28;20036;-67
2022/10/24 07:14:51;;;;;;;11.20;7.10;;;;;;;7.78;81.60;98983.56;5086162;28;20020;-67
2022/10/24 07:17:17;;;;;;;9.25;7.28;;;;;;;7.64;80.62;98980.44;5092555;28;20028;-66
2022/10/24 07:19:43;;;;;;;9.07;7.18;;;;;;;7.77;79.93;98984.44;5097553;28;20088;-67
2022/10/24 07:22:09;;;;;;;11.18;7.63;;;;;;;7.77;80.27;98986.19;5093531;28;20028;-67
2022/10/24 07:24:35;;;;;;;9.55;7.22;;;;;;;7.85;79.84;98988.56;5103593;28;20212;-66
2022/10/24 07:27:01;;;;;;;9.20;6.88;;;;;;;8.00;81.11;98984.84;5084297;28;20028;-68
2022/10/24 07:29:26;;;;;;;9.93;7.28;;;;;;;7.89;79.08;98996.19;5083245;28;20271;-67
2022/10/24 07:31:53;;;;;;;10.18;7.55;;;;;;;8.02;80.10;98981.31;5092860;28;20152;-67
2022/10/24 07:34:19;;;;;;;8.32;6.85;;;;;;;8.12;79.25;98993.13;5102428;28;20032;-70
2022/10/24 07:36:45;;;;;;;8.10;6.22;;;;;;;8.18;78.50;98984.41;5102025;28;20385;-67
2022/10/24 07:39:11;;;;;;;9.20;6.68;;;;;;;8.23;77.19;98999.78;5087709;28;20024;-67
2022/10/24 07:41:40;;;;;;;7.97;6.32;;;;;;;8.25;76.42;98985.09;5115478;28;20032;-66
2022/10/24 07:44:06;;;;;;;9.40;6.20;;;;;;;8.44;78.31;98988.97;5091374;28;20030;-68
2022/10/24 07:46:32;;;;;;;8.90;6.10;;;;;;;8.39;77.82;99000.25;5089261;28;20051;-67
2022/10/24 07:48:58;;;;;;;8.95;6.13;;;;;;;8.25;75.92;99006.59;5100698;28;20288;-67
2022/10/24 07:51:26;;;;;;;7.25;5.60;;;;;;;8.35;76.04;99009.81;5083174;28;20020;-67
2022/10/24 07:53:52;;;;;;;8.15;6.03;;;;;;;8.29;75.95;99010.81;5099627;28;20097;-66
2022/10/24 07:56:18;;;;;;;8.05;6.15;;;;;;;8.47;75.96;99003.53;5090428;28;20317;-68
2022/10/24 07:58:45;;;;;;;6.50;5.30;;;;;;;8.32;74.61;99002.13;5094222;28;20021;-66
2022/10/24 08:01:14;;;;;;;6.43;5.78;;;;;;;8.46;74.36;99000.13;5086549;28;20027;-67
2022/10/24 08:03:40;;;;;;;8.48;5.65;;;;;;;8.56;74.55;99008.47;5103292;28;20036;-66
2022/10/24 08:06:12;;;;;;;10.05;5.70;;;;;;;8.60;74.86;99030.75;5083373;28;20098;-67
2022/10/24 08:08:37;;;;;;;;;;;;;;;8.68;74.29;99020.25;5099074;28;20028;-67
2022/10/24 08:11:23;;;;;;;6.90;5.28;;;;;;;8.67;72.43;99028.03;5092227;28;20101;-67
2022/10/24 08:13:51;;;;;;;6.88;4.70;;;;;;;8.86;73.53;99029.25;5084900;28;20036;-67
2022/10/24 08:16:19;;;;;;;5.85;4.85;;;;;;;8.75;72.53;99013.19;5082934;28;20024;-67
2022/10/24 08:18:46;;;;;;;5.93;4.72;;;;;;;8.76;73.34;99036.38;5082952;28;20027;-67
2022/10/24 08:21:13;;;;;;;6.53;4.03;;;;;;;8.80;72.39;99040.56;5082900;28;20021;-66
2022/10/24 08:23:44;;;;;;;5.75;3.97;;;;;;;8.57;71.25;99027.41;5096166;28;20338;-67
2022/10/24 08:26:17;;;;;;;9.68;4.53;;;;;;;8.53;71.79;99030.94;5091275;28;20032;-67
2022/10/24 08:28:43;;;;;;;8.93;4.78;;;;;;;8.49;72.84;99047.38;5082526;28;20028;-67
2022/10/24 08:31:14;;;;;;;6.22;4.88;;;;;;;8.46;73.86;99033.66;5085681;28;20207;-66
2022/10/24 08:33:41;;;;;;;6.00;4.68;;;;;;;8.48;73.26;99056.00;5103027;28;20020;-67
2022/10/24 08:36:20;;;;;;;7.00;4.45;;;;;;;8.33;72.47;99046.84;5083620;28;20297;-68
2022/10/24 08:38:46;;;;;;;5.47;3.70;;;;;;;8.38;74.33;99063.06;5099153;28;20032;-66
2022/10/24 08:41:45;;;;;;;4.35;3.63;;;;;;;8.23;75.57;99069.41;5097768;28;20024;-67
2022/10/24 08:44:15;;;;;;;4.60;3.42;;;;;;;8.23;74.96;99064.25;5091169;28;20040;-67
2022/10/24 08:46:49;;;;;;;3.65;2.83;;;;;;;8.39;74.73;99067.34;5090070;28;20024;-67
2022/10/24 08:49:34;;;;;;;7.47;3.17;;;;;;;8.34;75.82;99070.03;5099262;28;20269;-67
2022/10/24 08:52:13;;;;;;;4.53;3.10;;;;;;;8.33;76.43;99058.00;5101093;28;20027;-67
2022/10/24 08:54:43;;;;;;;4.00;2.92;;;;;;;8.30;73.76;99060.66;5082477;28;20092;-67
2022/10/24 08:57:22;;;;;;;4.05;3.10;;;;;;;8.34;72.19;99072.63;5102747;28;20043;-67
2022/10/24 08:59:50;;;;;;;5.18;3.22;;;;;;;8.40;73.99;99080.22;5089698;28;20043;-67
2022/10/24 09:02:23;;;;;;;6.00;3.05;;;;;;;8.40;73.22;99077.63;5098216;28;20081;-67
2022/10/24 09:04:55;;;;;;;5.88;3.40;;;;;;;8.44;72.61;99089.59;5097568;28;20293;-67
2022/10/24 09:07:22;;;;;;;7.15;3.78;;;;;;;8.51;73.42;99087.75;5089294;28;20024;-67
2022/10/24 09:09:51;;;;;;;4.90;3.50;;;;;;;8.33;72.14;99067.50;5093902;28;20312;-67
2022/10/24 09:12:20;;;;;;;4.93;3.45;;;;;;;8.52;71.83;99101.50;5103081;28;20357;-67
2022/10/24 09:14:54;;;;;;;4.03;3.00;;;;;;;8.57;72.76;99094.50;5089803;28;20043;-68
2022/10/24 09:17:28;;;;;;;4.82;3.45;;;;;;;8.49;71.36;99088.66;5098704;28;20091;-67
2022/10/24 09:19:55;;;;;;;5.05;3.40;;;;;;;8.58;72.34;99116.81;5095734;28;20060;-67
2022/10/24 09:22:24;;;;;;;5.00;3.28;;;;;;;8.48;71.91;99099.84;5092510;28;20024;-68
2022/10/24 09:25:03;;;;;;;4.22;3.08;;;;;;;8.32;72.97;99089.84;5094969;28;20020;-67
2022/10/24 09:27:34;;;;;;;8.38;3.90;;;;;;;8.46;73.43;99112.78;5095720;28;20020;-67
2022/10/24 09:29:59;;;;;;;4.47;3.28;;;;;;;8.57;72.08;99110.81;5099438;28;20032;-68
2022/10/24 09:32:29;;;;;;;3.85;3.33;;;;;;;8.62;72.92;99102.97;5095938;28;20034;-67
2022/10/24 09:35:10;;;;;;;4.50;3.63;;;;;;;8.80;72.63;99112.03;5095380;28;20309;-68
2022/10/24 09:37:38;;;;;;;8.65;4.03;;;;;;;8.65;72.06;99110.66;5095194;28;20141;-67
2022/10/24 09:40:08;;;;;;;5.20;3.78;;;;;;;8.64;71.97;99107.22;5100716;28;20032;-68
2022/10/24 09:42:36;;;;;;;4.60;3.47;;;;;;;8.78;71.86;99112.06;5103318;28;20024;-66
2022/10/24 09:45:28;;;;;;;4.05;3.17;;;;;;;8.98;70.21;99119.34;5087226;28;20254;-66
2022/10/24 09:48:04;;;;;;;3.97;3.25;;;;;;;9.18;70.13;99130.06;5102009;28;20028;-66
2022/10/24 09:50:34;;;;;;;5.25;3.05;;;;;;;9.06;68.77;99102.81;5091649;28;20024;-67
2022/10/24 09:53:02;;;;;;;2.92;2.45;;;;;;;9.04;67.35;99120.09;5094365;28;20035;-68
2022/10/24 09:55:28;;;;;;;4.65;3.13;;;;;;;9.00;67.71;99124.47;5100260;28;20040;-67
2022/10/24 09:57:56;;;;;;;3.83;2.90;;;;;;;8.84;67.53;99110.25;5084967;28;20024;-67
2022/10/24 10:00:30;;;;;;;3.03;2.17;;;;;;;8.90;66.66;99133.31;5105586;28;20058;-67
2022/10/24 10:03:05;;;;;;;3.45;2.40;;;;;;;8.94;64.17;99134.94;5094920;28;20040;-66
2022/10/24 10:05:53;;;;;;;3.53;2.40;;;;;;;9.05;64.96;99132.09;5089809;28;20348;-67
2022/10/24 10:08:22;;;;;;;2.58;2.35;;;;;;;9.04;64.65;99136.41;5096833;28;20063;-66
2022/10/24 10:10:56;;;;;;;2.40;2.20;;;;;;;8.81;63.27;99119.75;5096315;28;20077;-66
2022/10/24 10:13:24;;;;;;;3.42;2.30;;;;;;;8.98;64.20;99139.16;5088760;28;20093;-66
2022/10/24 10:15:59;;;;;;;1.98;1.80;;;;;;;9.06;63.72;99139.81;5103626;28;20039;-67
2022/10/24 10:18:31;;;;;;;2.30;2.10;;;;;;;8.95;62.80;99134.91;5084833;28;20265;-66
2022/10/24 10:21:19;;;;;;;4.18;2.13;;;;;;;8.84;62.37;99142.06;5101421;28;20356;-67
2022/10/24 10:23:54;;;;;;;2.20;2.00;;;;;;;8.77;61.98;99153.41;5103632;28;20028;-67
2022/10/24 10:26:19;;;;;;;3.60;2.08;;;;;;;8.79;60.44;99149.06;5092952;28;20033;-66
2022/10/24 10:29:03;;;;;;;3.33;1.98;;;;;;;8.87;61.85;99157.47;5084234;28;20024;-66
2022/10/24 10:31:39;;;;;;;3.28;2.00;;;;;;;8.78;61.43;99139.63;5088253;28;20083;-66
2022/10/24 10:34:22;;;;;;;3.47;1.95;;;;;;;8.79;61.71;99151.63;5084228;28;20028;-66
2022/10/24 10:37:00;;;;;;;3.15;2.40;;;;;;;8.85;61.94;99148.06;5104377;28;20052;-65
2022/10/24 10:39:51;;;;;;;3.75;2.00;;;;;;;8.99;61.19;99164.09;5084308;28;20043;-67
2022/10/24 10:42:32;;;;;;;2.80;2.10;;;;;;;9.03;61.79;99147.63;5103664;28;20028;-67
2022/10/24 10:45:18;;;;;;;3.45;2.30;;;;;;;9.27;61.45;99155.69;5087213;28;20021;-67
2022/10/24 10:47:52;;;;;;;3.65;2.10;;;;;;;9.20;59.15;99156.72;5099319;28;20028;-66
2022/10/24 10:50:26;;;;;;;2.85;2.20;;;;;;;9.17;57.61;99161.97;5092761;28;20085;-66
2022/10/24 10:53:01;;;;;;;6.57;3.50;;;;;;;9.04;57.64;99164.84;5091597;28;20351;-67
2022/10/24 10:55:33;;;;;;;6.72;4.18;;;;;;;9.15;58.43;99162.84;5099925;28;20091;-67
2022/10/24 10:58:18;;;;;;;4.65;4.03;;;;;;;8.96;57.98;99161.56;5084184;28;20445;-66
2022/10/24 11:01:05;;;;;;;7.30;2.15;;;;;;;8.83;56.75;99170.50;5104075;28;20032;-67
2022/10/24 11:03:53;;;;;;;2.70;1.73;;;;;;;8.74;56.45;99182.72;5070322;28;20202;-66
2022/10/24 11:06:21;;;;;;;2.92;1.45;;;;;;;8.56;55.42;99178.81;5098128;28;20091;-67
2022/10/24 11:09:33;;;;;;;2.20;1.63;;;;;;;8.71;55.82;99181.97;5088594;28;20033;-67
2022/10/24 11:12:13;;;;;;;1.85;1.58;;;;;;;8.55;56.64;99164.22;5076664;28;20097;-67
2022/10/24 11:14:47;;;;;;;1.40;1.20;;;;;;;8.49;54.71;99182.41;5089692;28;20095;-66
2022/10/24 11:17:15;;;;;;;2.20;1.30;;;;;;;8.44;54.33;99177.34;5088884;28;20028;-67
2022/10/24 11:19:55;;;;;;;2.70;1.30;;;;;;;8.39;54.54;99166.22;5091746;28;20032;-67
2022/10/24 11:22:31;;;;;;;2.67;1.42;;;;;;;8.41;53.78;99172.22;5094403;28;20095;-66
2022/10/24 11:25:25;;;;;;;2.53;1.60;;;;;;;8.39;54.79;99165.38;5094080;28;20023;-67
2022/10/24 11:28:17;;;;;;;2.42;1.70;;;;;;;8.53;53.61;99167.72;5090225;28;20317;-67
2022/10/24 11:30:50;;;;;;;2.33;1.63;;;;;;;8.60;56.37;99183.03;5094071;28;20031;-67
2022/10/24 11:33:21;;;;;;;4.43;2.00;;;;;;;8.72;56.84;99181.94;5093551;28;20078;-67
2022/10/24 11:36:22;;;;;;;3.28;2.05;;;;;;;8.73;56.11;99191.34;5093636;28;20054;-67
2022/10/24 11:39:15;;;;;;;3.42;1.83;;;;;;;8.76;55.27;99170.63;5040423;28;20324;-67
2022/10/24 11:42:06;;;;;;;7.10;1.88;;;;;;;8.70;57.10;99188.84;5088787;28;20039;-67
2022/10/24 11:44:46;;;;;;;1.92;1.38;;;;;;;8.97;54.97;99184.78;5096782;28;20084;-67
2022/10/24 11:47:18;;;;;;;4.03;1.60;;;;;;;8.95;54.15;99185.69;5088344;28;20060;-67
2022/10/24 11:49:49;;;;;;;2.00;1.50;;;;;;;8.92;53.66;99171.16;5094186;28;20020;-67